createdAt,value
2019-06-26T00:00:18.755Z,21.61
2019-06-26T00:02:48.870Z,21.67
2019-06-26T00:05:19.117Z,21.64
2019-06-26T00:07:49.153Z,21.53
2019-06-26T00:10:19.304Z,21.56
2019-06-26T00:12:50.982Z,21.60
2019-06-26T00:15:21.286Z,21.64
2019-06-26T00:17:51.421Z,21.69
2019-06-26T00:20:21.607Z,21.71
2019-06-26T00:22:51.662Z,21.73
2019-06-26T00:25:21.735Z,21.73
2019-06-26T00:27:51.804Z,21.58
2019-06-26T00:30:21.846Z,21.40
2019-06-26T00:32:51.908Z,21.27
2019-06-26T00:35:21.971Z,21.21
2019-06-26T00:37:52.022Z,21.18
2019-06-26T00:40:22.094Z,21.18
2019-06-26T00:42:52.148Z,21.19
2019-06-26T00:45:22.208Z,21.24
2019-06-26T00:47:52.265Z,21.25
2019-06-26T00:50:22.334Z,21.13
2019-06-26T00:52:52.376Z,21.11
2019-06-26T00:55:22.434Z,21.13
2019-06-26T00:57:52.481Z,21.18
2019-06-26T01:00:28.406Z,21.14
2019-06-26T01:02:58.449Z,21.01
2019-06-26T01:05:28.499Z,20.95
2019-06-26T01:07:58.573Z,20.87
2019-06-26T01:10:28.625Z,20.94
2019-06-26T01:12:58.818Z,20.97
2019-06-26T01:15:28.949Z,20.93
2019-06-26T01:17:59.006Z,20.94
2019-06-26T01:20:30.036Z,21.00
2019-06-26T01:23:00.306Z,20.99
2019-06-26T01:25:30.390Z,20.96
2019-06-26T01:28:00.431Z,20.93
2019-06-26T01:30:30.479Z,20.89
2019-06-26T01:33:00.548Z,20.83
2019-06-26T01:35:30.597Z,20.78
2019-06-26T01:38:00.655Z,20.77
2019-06-26T01:40:30.703Z,20.70
2019-06-26T01:43:00.761Z,20.68
2019-06-26T01:45:30.803Z,20.64
2019-06-26T01:48:01.842Z,20.69
2019-06-26T01:50:31.879Z,20.73
2019-06-26T01:53:02.021Z,20.81
2019-06-26T01:55:32.064Z,20.85
2019-06-26T01:58:02.111Z,20.93
2019-06-26T02:00:32.192Z,20.95
2019-06-26T02:03:02.470Z,20.99
2019-06-26T02:05:32.549Z,21.05
2019-06-26T02:08:02.584Z,21.10
2019-06-26T02:10:32.714Z,21.08
2019-06-26T02:13:02.777Z,21.02
2019-06-26T02:15:32.836Z,20.90
2019-06-26T02:18:02.915Z,20.80
2019-06-26T02:20:33.042Z,20.72
2019-06-26T02:23:03.127Z,20.73
2019-06-26T02:25:33.193Z,20.72
2019-06-26T02:28:03.338Z,20.76
2019-06-26T02:30:33.428Z,20.80
2019-06-26T02:33:03.461Z,20.85
2019-06-26T02:35:33.637Z,20.88
2019-06-26T02:38:03.651Z,20.89
2019-06-26T02:40:33.779Z,20.85
2019-06-26T02:43:07.013Z,20.81
2019-06-26T02:45:35.586Z,20.75
2019-06-26T02:48:05.643Z,20.70
2019-06-26T02:50:35.676Z,20.69
2019-06-26T02:53:05.727Z,20.72
2019-06-26T02:55:35.831Z,20.76
2019-06-26T02:58:05.897Z,20.81
2019-06-26T03:00:35.929Z,20.86
2019-06-26T03:03:05.976Z,20.92
2019-06-26T03:05:36.053Z,20.99
2019-06-26T03:08:06.083Z,21.02
2019-06-26T03:10:36.166Z,20.99
2019-06-26T03:13:06.353Z,20.96
2019-06-26T03:15:36.409Z,21.00
2019-06-26T03:18:06.491Z,20.99
2019-06-26T03:20:40.287Z,21.04
2019-06-26T03:23:10.401Z,20.99
2019-06-26T03:25:40.454Z,20.94
2019-06-26T03:28:10.515Z,20.91
2019-06-26T03:30:40.608Z,20.93
2019-06-26T03:33:10.651Z,20.94
2019-06-26T03:35:41.016Z,20.97
2019-06-26T03:38:11.171Z,20.94
2019-06-26T03:40:41.210Z,20.93
2019-06-26T03:43:11.664Z,20.90
2019-06-26T03:45:41.712Z,20.89
2019-06-26T03:48:11.771Z,20.89
2019-06-26T03:50:41.830Z,20.90
2019-06-26T03:53:11.888Z,20.93
2019-06-26T03:55:42.463Z,20.95
2019-06-26T03:58:13.484Z,20.99
2019-06-26T04:00:44.063Z,21.03
2019-06-26T04:03:14.121Z,21.07
2019-06-26T04:05:44.170Z,21.02
2019-06-26T04:08:14.231Z,20.93
2019-06-26T04:10:44.296Z,20.87
2019-06-26T04:13:14.357Z,20.82
2019-06-26T04:15:44.410Z,20.78
2019-06-26T04:18:14.467Z,20.68
2019-06-26T04:20:44.514Z,20.64
2019-06-26T04:23:14.714Z,20.61
2019-06-26T04:25:44.856Z,20.56
2019-06-26T04:28:14.901Z,20.54
2019-06-26T04:30:44.974Z,20.58
2019-06-26T04:33:15.173Z,20.62
2019-06-26T04:35:46.193Z,20.64
2019-06-26T04:38:17.292Z,20.66
2019-06-26T04:40:48.337Z,20.70
2019-06-26T04:43:18.382Z,20.73
2019-06-26T04:45:57.572Z,20.80
2019-06-26T04:48:20.198Z,20.85
2019-06-26T04:50:50.265Z,20.90
2019-06-26T04:53:20.315Z,20.88
2019-06-26T04:55:50.364Z,20.88
2019-06-26T04:58:20.435Z,20.86
2019-06-26T05:00:50.475Z,20.93
2019-06-26T05:03:20.521Z,20.99
2019-06-26T05:05:50.590Z,21.06
2019-06-26T05:08:20.635Z,21.08
2019-06-26T05:10:50.702Z,21.11
2019-06-26T05:13:20.734Z,21.17
2019-06-26T05:15:50.793Z,21.24
2019-06-26T05:18:20.839Z,21.33
2019-06-26T05:20:50.941Z,21.38
2019-06-26T05:23:20.996Z,21.45
2019-06-26T05:25:51.046Z,21.49
2019-06-26T05:28:21.121Z,21.50
2019-06-26T05:30:51.149Z,21.50
2019-06-26T05:33:21.223Z,21.53
2019-06-26T05:35:51.261Z,21.55
2019-06-26T05:38:21.337Z,21.59
2019-06-26T05:40:51.414Z,21.61
2019-06-26T05:43:21.419Z,21.64
2019-06-26T05:45:51.495Z,21.65
2019-06-26T05:48:21.536Z,21.64
2019-06-26T05:50:51.578Z,21.66
2019-06-26T05:53:21.645Z,21.73
2019-06-26T05:55:51.680Z,21.79
2019-06-26T05:58:21.752Z,21.86
2019-06-26T06:00:51.834Z,21.93
2019-06-26T06:03:21.997Z,21.94
2019-06-26T06:05:52.041Z,21.99
2019-06-26T06:08:23.065Z,22.07
2019-06-26T06:10:57.866Z,22.14
2019-06-26T06:13:25.812Z,22.22
2019-06-26T06:15:55.881Z,22.20
2019-06-26T06:18:25.965Z,22.24
2019-06-26T06:20:57.529Z,22.26
2019-06-26T06:23:27.565Z,22.24
2019-06-26T06:25:57.636Z,22.28
2019-06-26T06:28:27.678Z,22.26
2019-06-26T06:30:57.733Z,22.27
2019-06-26T06:33:30.474Z,22.18
2019-06-26T06:36:09.653Z,22.15
2019-06-26T06:38:43.137Z,22.13
2019-06-26T06:41:13.343Z,22.14
2019-06-26T06:43:43.377Z,22.13
2019-06-26T06:46:13.420Z,22.12
2019-06-26T06:48:43.595Z,22.14
2019-06-26T06:51:13.620Z,22.12
2019-06-26T06:53:43.689Z,22.19
2019-06-26T06:56:13.703Z,22.20
2019-06-26T06:58:43.767Z,22.22
2019-06-26T07:01:13.820Z,22.22
2019-06-26T07:03:43.879Z,22.32
2019-06-26T07:06:13.921Z,22.39
2019-06-26T07:08:43.983Z,22.44
2019-06-26T07:11:14.015Z,22.44
2019-06-26T07:13:44.079Z,22.37
2019-06-26T07:16:14.113Z,22.35
2019-06-26T07:18:44.185Z,22.31
2019-06-26T07:21:15.229Z,22.31
2019-06-26T07:23:45.294Z,22.29
2019-06-26T07:26:15.315Z,22.40
2019-06-26T07:28:45.347Z,22.42
2019-06-26T07:31:15.453Z,22.51
2019-06-26T07:33:45.517Z,22.52
2019-06-26T07:36:15.553Z,22.52
2019-06-26T07:38:45.602Z,22.55
2019-06-26T07:41:15.643Z,22.62
2019-06-26T07:43:45.709Z,22.70
2019-06-26T07:46:15.748Z,22.77
2019-06-26T07:48:45.825Z,22.79
2019-06-26T07:51:15.886Z,22.76
2019-06-26T07:53:45.906Z,22.66
2019-06-26T07:56:15.958Z,22.57
2019-06-26T07:58:46.027Z,22.58
2019-06-26T08:01:16.092Z,22.61
2019-06-26T08:03:46.132Z,22.62
2019-06-26T08:06:16.184Z,22.64
2019-06-26T08:08:46.237Z,22.65
2019-06-26T08:11:16.284Z,22.64
2019-06-26T08:13:46.342Z,22.66
2019-06-26T08:16:16.407Z,22.68
2019-06-26T08:18:46.452Z,22.67
2019-06-26T08:21:16.497Z,22.62
2019-06-26T08:23:46.551Z,22.64
2019-06-26T08:26:16.596Z,22.68
2019-06-26T08:28:46.640Z,22.73
2019-06-26T08:31:16.802Z,22.75
2019-06-26T08:33:47.797Z,22.67
2019-06-26T08:36:17.869Z,22.54
2019-06-26T08:38:47.904Z,22.45
2019-06-26T08:41:17.968Z,22.49
2019-06-26T08:43:48.972Z,22.55
2019-06-26T08:46:19.028Z,22.55
2019-06-26T08:48:51.861Z,22.65
2019-06-26T08:51:21.097Z,22.74
2019-06-26T08:53:51.481Z,22.81
2019-06-26T08:56:21.540Z,22.83
2019-06-26T08:58:51.573Z,22.88
2019-06-26T09:01:21.757Z,23.00
2019-06-26T09:03:51.808Z,23.15
2019-06-26T09:06:22.956Z,23.26
2019-06-26T09:08:52.996Z,23.36
2019-06-26T09:11:23.073Z,23.43
2019-06-26T09:13:53.119Z,23.52
2019-06-26T09:16:23.180Z,23.55
2019-06-26T09:18:53.233Z,23.56
2019-06-26T09:21:24.247Z,23.65
2019-06-26T09:23:54.275Z,23.82
2019-06-26T09:26:24.336Z,24.04
2019-06-26T09:28:54.381Z,24.17
2019-06-26T09:31:24.492Z,24.23
2019-06-26T09:33:54.532Z,24.30
2019-06-26T09:36:24.591Z,24.27
2019-06-26T09:38:57.852Z,24.19
2019-06-26T09:41:26.420Z,24.18
2019-06-26T09:43:56.453Z,24.27
2019-06-26T09:46:26.528Z,24.28
2019-06-26T09:48:56.558Z,24.33
2019-06-26T09:51:26.617Z,24.44
2019-06-26T09:53:56.677Z,24.42
2019-06-26T09:56:26.721Z,24.40
2019-06-26T09:58:56.796Z,24.41
2019-06-26T10:01:26.839Z,24.34
2019-06-26T10:03:56.881Z,24.35
2019-06-26T10:06:26.957Z,24.34
2019-06-26T10:08:57.008Z,24.24
2019-06-26T10:11:27.060Z,24.32
2019-06-26T10:13:57.091Z,24.30
2019-06-26T10:16:27.172Z,24.23
2019-06-26T10:19:09.715Z,24.24
2019-06-26T10:21:28.971Z,24.28
2019-06-26T10:23:59.003Z,24.46
2019-06-26T10:26:32.177Z,24.61
2019-06-26T10:29:00.787Z,24.80
2019-06-26T10:31:30.875Z,24.90
2019-06-26T10:34:00.901Z,24.95
2019-06-26T10:36:30.950Z,25.06
2019-06-26T10:39:01.044Z,25.13
2019-06-26T10:41:32.845Z,25.23
2019-06-26T10:44:02.943Z,25.31
2019-06-26T10:46:33.972Z,25.26
2019-06-26T10:49:04.042Z,25.17
2019-06-26T10:51:34.080Z,25.11
2019-06-26T10:54:04.149Z,24.99
2019-06-26T10:56:34.174Z,25.12
2019-06-26T10:59:04.221Z,25.15
2019-06-26T11:01:34.295Z,25.13
2019-06-26T11:04:04.325Z,25.17
2019-06-26T11:06:37.068Z,25.34
2019-06-26T11:09:07.713Z,25.53
2019-06-26T11:11:37.776Z,25.78
2019-06-26T11:14:07.821Z,25.88
2019-06-26T11:16:37.895Z,26.02
2019-06-26T11:19:07.919Z,26.03
2019-06-26T11:21:37.986Z,26.15
2019-06-26T11:24:08.009Z,26.33
2019-06-26T11:26:38.093Z,26.62
2019-06-26T11:29:08.124Z,26.83
2019-06-26T11:31:38.217Z,26.87
2019-06-26T11:34:08.256Z,26.76
2019-06-26T11:36:38.330Z,26.73
2019-06-26T11:39:08.845Z,26.52
2019-06-26T11:41:39.034Z,26.38
2019-06-26T11:44:09.044Z,26.39
2019-06-26T11:46:39.158Z,26.44
2019-06-26T11:49:09.234Z,26.32
2019-06-26T11:51:39.254Z,26.33
2019-06-26T11:54:09.486Z,26.30
2019-06-26T11:56:39.451Z,26.35
2019-06-26T11:59:09.529Z,26.38
2019-06-26T12:01:39.625Z,26.40
2019-06-26T12:04:09.807Z,26.59
2019-06-26T12:06:39.835Z,26.81
2019-06-26T12:09:09.939Z,26.93
2019-06-26T12:11:39.980Z,26.96
2019-06-26T12:14:10.061Z,27.00
2019-06-26T12:16:40.155Z,27.02
2019-06-26T12:19:10.359Z,26.89
2019-06-26T12:21:40.425Z,26.88
2019-06-26T12:24:10.449Z,27.00
2019-06-26T12:26:40.541Z,27.15
2019-06-26T12:29:10.576Z,27.18
2019-06-26T12:31:41.734Z,27.24
2019-06-26T12:34:12.761Z,27.18
2019-06-26T12:36:42.829Z,27.21
2019-06-26T12:39:12.840Z,27.17
2019-06-26T12:41:42.908Z,27.06
2019-06-26T12:44:12.954Z,27.00
2019-06-26T12:46:43.019Z,27.07
2019-06-26T12:49:13.054Z,27.02
2019-06-26T12:51:43.120Z,27.09
2019-06-26T12:54:13.156Z,27.02
2019-06-26T12:56:43.214Z,26.98
2019-06-26T12:59:13.245Z,26.87
2019-06-26T13:01:43.314Z,26.94
2019-06-26T13:04:13.360Z,26.89
2019-06-26T13:06:43.399Z,26.89
2019-06-26T13:09:13.435Z,26.78
2019-06-26T13:11:43.484Z,26.80
2019-06-26T13:14:13.514Z,26.79
2019-06-26T13:16:43.589Z,26.75
2019-06-26T13:19:13.628Z,26.73
2019-06-26T13:21:43.750Z,26.66
2019-06-26T13:24:13.827Z,26.79
2019-06-26T13:26:43.860Z,26.81
2019-06-26T13:29:13.904Z,26.83
2019-06-26T13:31:45.028Z,26.83
2019-06-26T13:34:15.084Z,26.93
2019-06-26T13:36:45.170Z,27.04
2019-06-26T13:39:15.213Z,27.03
2019-06-26T13:41:45.261Z,26.81
2019-06-26T13:44:15.328Z,26.62
2019-06-26T13:46:45.385Z,26.55
2019-06-26T13:49:16.628Z,26.63
2019-06-26T13:51:46.732Z,26.55
2019-06-26T13:54:16.816Z,26.46
2019-06-26T13:56:46.840Z,26.54
2019-06-26T13:59:16.884Z,26.75
2019-06-26T14:01:46.937Z,26.99
2019-06-26T14:04:16.995Z,27.19
2019-06-26T14:06:47.037Z,27.29
2019-06-26T14:09:17.066Z,27.35
2019-06-26T14:11:47.137Z,27.38
2019-06-26T14:14:17.164Z,27.30
2019-06-26T14:16:47.222Z,27.14
2019-06-26T14:19:17.267Z,27.16
2019-06-26T14:21:47.303Z,27.19
2019-06-26T14:24:18.425Z,27.36
2019-06-26T14:26:48.456Z,27.49
2019-06-26T14:29:21.381Z,27.44
2019-06-26T14:31:52.556Z,27.42
2019-06-26T14:34:22.622Z,27.44
2019-06-26T14:36:52.653Z,27.53
2019-06-26T14:39:22.748Z,27.57
2019-06-26T14:41:52.808Z,27.66
2019-06-26T14:44:22.860Z,27.74
2019-06-26T14:46:52.873Z,27.68
2019-06-26T14:49:22.947Z,27.69
2019-06-26T14:51:53.014Z,27.72
2019-06-26T14:54:23.071Z,27.62
2019-06-26T14:56:53.131Z,27.67
2019-06-26T14:59:23.171Z,27.71
2019-06-26T15:01:53.240Z,27.75
2019-06-26T15:04:23.296Z,27.76
2019-06-26T15:06:53.339Z,27.77
2019-06-26T15:09:23.408Z,27.77
2019-06-26T15:11:53.453Z,27.65
2019-06-26T15:14:23.495Z,27.56
2019-06-26T15:16:53.552Z,27.49
2019-06-26T15:19:23.593Z,27.43
2019-06-26T15:21:58.207Z,27.26
2019-06-26T15:24:25.417Z,27.28
2019-06-26T15:26:55.484Z,27.27
2019-06-26T15:29:25.549Z,27.07
2019-06-26T15:31:55.631Z,27.05
2019-06-26T15:34:26.351Z,27.05
2019-06-26T15:36:56.421Z,27.06
2019-06-26T15:39:26.456Z,26.97
2019-06-26T15:41:56.500Z,26.91
2019-06-26T15:44:26.602Z,26.91
2019-06-26T15:46:56.610Z,27.01
2019-06-26T15:49:26.688Z,26.99
2019-06-26T15:51:56.728Z,26.93
2019-06-26T15:54:26.793Z,26.94
2019-06-26T15:56:56.833Z,27.01
2019-06-26T15:59:26.888Z,27.01
2019-06-26T16:01:56.955Z,27.05
2019-06-26T16:04:26.998Z,26.89
2019-06-26T16:06:57.081Z,26.92
2019-06-26T16:09:27.119Z,26.88
2019-06-26T16:11:58.917Z,26.93
2019-06-26T16:14:28.915Z,26.90
2019-06-26T16:17:01.461Z,26.86
2019-06-26T16:19:31.506Z,26.92
2019-06-26T16:22:01.566Z,26.83
2019-06-26T16:24:31.659Z,26.76
2019-06-26T16:27:01.664Z,26.64
2019-06-26T16:29:31.700Z,26.53
2019-06-26T16:32:01.828Z,26.47
2019-06-26T16:34:31.866Z,26.39
2019-06-26T16:37:01.929Z,26.38
2019-06-26T16:39:31.957Z,26.32
2019-06-26T16:42:02.014Z,26.26
2019-06-26T16:44:32.036Z,26.25
2019-06-26T16:47:02.093Z,26.27
2019-06-26T16:49:32.153Z,26.16
2019-06-26T16:52:02.182Z,26.04
2019-06-26T16:54:32.234Z,25.94
2019-06-26T16:57:02.382Z,25.75
2019-06-26T16:59:32.400Z,25.59
2019-06-26T17:02:02.462Z,25.48
2019-06-26T17:04:32.485Z,25.39
2019-06-26T17:07:03.600Z,25.44
2019-06-26T17:09:33.641Z,25.51
2019-06-26T17:12:03.725Z,25.51
2019-06-26T17:14:33.750Z,25.62
2019-06-26T17:17:03.813Z,25.70
2019-06-26T17:19:33.859Z,25.66
2019-06-26T17:22:05.061Z,25.61
2019-06-26T17:24:36.167Z,25.64
2019-06-26T17:27:06.232Z,25.66
2019-06-26T17:29:36.276Z,25.57
2019-06-26T17:32:07.315Z,25.55
2019-06-26T17:34:37.365Z,25.49
2019-06-26T17:37:07.492Z,25.46
2019-06-26T17:39:37.496Z,25.43
2019-06-26T17:42:08.517Z,25.40
2019-06-26T17:44:38.551Z,25.36
2019-06-26T17:47:08.605Z,25.24
2019-06-26T17:49:38.659Z,25.12
2019-06-26T17:52:08.702Z,25.08
2019-06-26T17:54:38.860Z,25.06
2019-06-26T17:57:08.905Z,25.02
2019-06-26T17:59:38.955Z,24.93
2019-06-26T18:02:09.030Z,24.98
2019-06-26T18:04:39.064Z,24.92
2019-06-26T18:07:09.127Z,24.91
2019-06-26T18:09:39.197Z,24.88
2019-06-26T18:12:09.237Z,24.90
2019-06-26T18:14:42.948Z,24.84
2019-06-26T18:17:21.581Z,24.66
2019-06-26T18:19:43.106Z,24.62
2019-06-26T18:22:13.142Z,24.69
2019-06-26T18:24:43.206Z,24.60
2019-06-26T18:27:13.260Z,24.40
2019-06-26T18:29:43.330Z,24.34
2019-06-26T18:32:13.574Z,24.34
2019-06-26T18:34:46.711Z,24.38
2019-06-26T18:37:15.814Z,24.32
2019-06-26T18:39:45.877Z,24.36
2019-06-26T18:42:15.925Z,24.34
2019-06-26T18:44:45.979Z,24.28
2019-06-26T18:47:16.283Z,24.27
2019-06-26T18:49:46.385Z,24.26
2019-06-26T18:52:16.437Z,24.17
2019-06-26T18:54:46.517Z,24.09
2019-06-26T18:57:16.552Z,24.04
2019-06-26T18:59:46.708Z,24.07
2019-06-26T19:02:16.790Z,23.99
2019-06-26T19:04:46.845Z,23.95
2019-06-26T19:07:17.865Z,23.97
2019-06-26T19:09:47.892Z,23.94
2019-06-26T19:12:18.014Z,23.96
2019-06-26T19:14:48.119Z,24.02
2019-06-26T19:17:19.134Z,23.98
2019-06-26T19:19:49.267Z,23.93
2019-06-26T19:22:19.328Z,23.84
2019-06-26T19:24:49.368Z,23.77
2019-06-26T19:27:19.925Z,23.74
2019-06-26T19:29:50.917Z,23.72
2019-06-26T19:32:21.097Z,23.67
2019-06-26T19:34:51.164Z,23.59
2019-06-26T19:37:21.212Z,23.52
2019-06-26T19:39:51.279Z,23.53
2019-06-26T19:42:21.320Z,23.57
2019-06-26T19:44:51.409Z,23.58
2019-06-26T19:47:21.514Z,23.57
2019-06-26T19:49:51.593Z,23.59
2019-06-26T19:52:21.665Z,23.60
2019-06-26T19:54:51.707Z,23.58
2019-06-26T19:57:21.768Z,23.61
2019-06-26T19:59:51.998Z,23.52
2019-06-26T20:02:22.046Z,23.46
2019-06-26T20:04:52.145Z,23.47
2019-06-26T20:07:22.154Z,23.43
2019-06-26T20:09:52.246Z,23.42
2019-06-26T20:12:22.322Z,23.43
2019-06-26T20:14:52.416Z,23.42
2019-06-26T20:17:22.501Z,23.24
2019-06-26T20:19:52.569Z,23.29
2019-06-26T20:22:22.617Z,23.29
2019-06-26T20:24:52.684Z,23.22
2019-06-26T20:27:22.741Z,23.24
2019-06-26T20:29:52.789Z,23.13
2019-06-26T20:32:23.867Z,23.02
2019-06-26T20:34:54.178Z,22.90
2019-06-26T20:37:24.248Z,22.79
2019-06-26T20:39:54.315Z,22.73
2019-06-26T20:42:24.619Z,22.72
2019-06-26T20:44:54.684Z,22.66
2019-06-26T20:47:24.744Z,22.60
2019-06-26T20:49:54.794Z,22.60
2019-06-26T20:52:24.848Z,22.62
2019-06-26T20:55:01.274Z,22.59
2019-06-26T20:57:26.698Z,22.49
2019-06-26T20:59:56.726Z,22.49
2019-06-26T21:02:26.797Z,22.48
2019-06-26T21:04:56.864Z,22.42
2019-06-26T21:07:26.970Z,22.48
2019-06-26T21:09:57.045Z,22.44
2019-06-26T21:12:27.085Z,22.45
2019-06-26T21:14:57.120Z,22.40
2019-06-26T21:17:27.197Z,22.42
2019-06-26T21:19:57.229Z,22.38
2019-06-26T21:24:56.089Z,22.36
2019-06-26T21:27:26.145Z,22.39
2019-06-26T21:29:56.199Z,22.35
2019-06-26T21:32:26.288Z,22.38
2019-06-26T21:34:56.334Z,22.40
2019-06-26T21:37:26.384Z,22.45
2019-06-26T21:39:56.449Z,22.42
2019-06-26T21:42:26.502Z,22.39
2019-06-26T21:44:56.549Z,22.34
2019-06-26T21:47:26.605Z,22.27
2019-06-26T21:49:56.639Z,22.22
2019-06-26T21:52:26.681Z,22.19
2019-06-26T21:54:56.769Z,22.17
2019-06-26T21:57:44.563Z,22.14
2019-06-26T22:00:34.606Z,22.08
2019-06-26T22:03:22.153Z,21.95
2019-06-26T22:05:53.931Z,21.85
2019-06-26T22:08:25.576Z,21.80
2019-06-26T22:10:57.249Z,21.79
2019-06-26T22:13:27.360Z,21.78
2019-06-26T22:15:57.478Z,21.83
2019-06-26T22:18:27.611Z,21.89
2019-06-26T22:20:57.726Z,21.92
2019-06-26T22:23:27.823Z,21.88
2019-06-26T22:25:57.870Z,21.87
2019-06-26T22:28:27.905Z,21.90
2019-06-26T22:30:57.975Z,21.86
2019-06-26T22:33:28.057Z,21.83
2019-06-26T22:35:58.110Z,21.88
2019-06-26T22:38:28.165Z,21.83
2019-06-26T22:40:58.212Z,21.83
2019-06-26T22:43:28.253Z,21.87
2019-06-26T22:45:58.315Z,21.91
2019-06-26T22:48:28.345Z,21.90
2019-06-26T22:50:58.427Z,21.89
2019-06-26T22:53:28.453Z,21.86
2019-06-26T22:56:07.450Z,21.87
2019-06-26T22:58:30.291Z,21.85
2019-06-26T23:01:00.319Z,21.89
2019-06-26T23:03:30.371Z,21.92
2019-06-26T23:06:00.437Z,21.93
2019-06-26T23:08:30.479Z,21.96
2019-06-26T23:11:00.515Z,21.97
2019-06-26T23:13:30.582Z,21.97
2019-06-26T23:16:00.609Z,21.93
2019-06-26T23:18:30.688Z,21.91
2019-06-26T23:21:00.718Z,21.87
2019-06-26T23:23:30.780Z,21.89
2019-06-26T23:26:00.791Z,21.90
2019-06-26T23:28:30.851Z,21.86
2019-06-26T23:31:00.914Z,21.91
2019-06-26T23:33:31.102Z,21.94
2019-06-26T23:36:01.152Z,21.99
2019-06-26T23:38:31.224Z,22.04
2019-06-26T23:41:01.251Z,22.02
2019-06-26T23:43:31.296Z,21.98
2019-06-26T23:46:01.345Z,21.95
2019-06-26T23:48:31.376Z,21.92
2019-06-26T23:51:01.559Z,21.88
2019-06-26T23:53:31.676Z,21.83
2019-06-26T23:56:02.799Z,21.78
2019-06-26T23:58:32.865Z,21.77
